createdAt,value
2017-11-25T00:00:22.868Z,7.20
2017-11-25T00:02:50.439Z,7.20
2017-11-25T00:05:18.015Z,7.20
2017-11-25T00:07:45.612Z,7.20
2017-11-25T00:10:13.284Z,7.20
2017-11-25T00:12:40.916Z,7.20
2017-11-25T00:15:08.501Z,7.20
2017-11-25T00:17:36.107Z,7.20
2017-11-25T00:20:03.674Z,7.20
2017-11-25T00:22:31.294Z,7.10
2017-11-25T00:24:59.616Z,7.10
2017-11-25T00:27:27.224Z,7.10
2017-11-25T00:29:55.046Z,7.10
2017-11-25T00:32:22.605Z,7.10
2017-11-25T00:34:50.218Z,7.20
2017-11-25T00:37:17.799Z,7.20
2017-11-25T00:39:46.174Z,7.20
2017-11-25T00:42:14.531Z,7.20
2017-11-25T00:44:42.107Z,7.20
2017-11-25T00:47:09.683Z,7.10
2017-11-25T00:49:37.374Z,7.20
2017-11-25T00:52:05.053Z,7.20
2017-11-25T00:54:32.635Z,7.20
2017-11-25T00:57:00.242Z,7.20
2017-11-25T00:59:27.830Z,7.20
2017-11-25T01:01:55.433Z,7.20
2017-11-25T01:04:23.806Z,7.30
2017-11-25T01:06:51.352Z,7.20
2017-11-25T01:09:18.912Z,7.30
2017-11-25T01:11:46.482Z,7.30
2017-11-25T01:14:14.052Z,7.30
2017-11-25T01:16:41.643Z,7.30
2017-11-25T01:19:09.209Z,7.30
2017-11-25T01:21:36.811Z,7.20
2017-11-25T01:24:04.424Z,7.10
2017-11-25T01:26:32.017Z,7.10
2017-11-25T01:28:59.577Z,7.10
2017-11-25T01:31:27.183Z,7.00
2017-11-25T01:33:55.007Z,7.00
2017-11-25T01:36:22.695Z,7.00
2017-11-25T01:38:50.266Z,7.00
2017-11-25T01:41:17.852Z,7.00
2017-11-25T01:43:46.212Z,7.00
2017-11-25T01:46:13.790Z,7.00
2017-11-25T01:48:41.398Z,7.00
2017-11-25T01:51:08.960Z,7.00
2017-11-25T01:53:36.575Z,7.00
2017-11-25T01:56:04.903Z,6.90
2017-11-25T01:58:32.518Z,6.90
2017-11-25T02:01:00.940Z,6.90
2017-11-25T02:03:28.608Z,6.90
2017-11-25T02:05:56.199Z,6.90
2017-11-25T02:08:23.836Z,6.90
2017-11-25T02:10:51.428Z,6.90
2017-11-25T02:13:19.031Z,6.90
2017-11-25T02:15:46.652Z,6.90
2017-11-25T02:18:14.237Z,6.90
2017-11-25T02:20:41.877Z,6.90
2017-11-25T02:23:09.495Z,6.90
2017-11-25T02:25:37.092Z,7.00
2017-11-25T02:28:04.685Z,6.90
2017-11-25T02:30:33.082Z,6.80
2017-11-25T02:33:00.721Z,6.80
2017-11-25T02:35:29.071Z,6.80
2017-11-25T02:37:56.658Z,6.70
2017-11-25T02:40:24.271Z,6.70
2017-11-25T02:42:51.846Z,6.70
2017-11-25T02:45:19.424Z,6.60
2017-11-25T02:47:47.061Z,6.60
2017-11-25T02:50:14.643Z,6.60
2017-11-25T02:52:42.247Z,6.50
2017-11-25T02:55:09.832Z,6.40
2017-11-25T02:57:37.419Z,6.30
2017-11-25T03:00:05.020Z,6.30
2017-11-25T03:02:32.696Z,6.30
2017-11-25T03:05:00.277Z,6.20
2017-11-25T03:07:27.874Z,6.20
2017-11-25T03:09:55.485Z,6.10
2017-11-25T03:12:23.055Z,6.10
2017-11-25T03:14:50.623Z,6.10
2017-11-25T03:17:18.219Z,6.00
2017-11-25T03:19:45.781Z,5.90
2017-11-25T03:22:13.399Z,5.90
2017-11-25T03:24:41.068Z,5.70
2017-11-25T03:27:08.663Z,5.60
2017-11-25T03:29:36.233Z,5.50
2017-11-25T03:32:04.612Z,5.30
2017-11-25T03:34:32.972Z,5.20
2017-11-25T03:37:00.531Z,5.20
2017-11-25T03:39:28.127Z,5.20
2017-11-25T03:41:56.462Z,5.20
2017-11-25T03:44:24.079Z,5.20
2017-11-25T03:46:51.655Z,5.20
2017-11-25T03:49:19.251Z,5.20
2017-11-25T03:51:46.847Z,5.20
2017-11-25T03:54:15.198Z,5.30
2017-11-25T03:56:42.759Z,5.30
2017-11-25T03:59:10.580Z,5.30
2017-11-25T04:01:38.175Z,5.40
2017-11-25T04:04:06.061Z,5.40
2017-11-25T04:06:33.670Z,5.40
2017-11-25T04:09:01.255Z,5.40
2017-11-25T04:11:28.960Z,5.50
2017-11-25T04:13:57.328Z,5.40
2017-11-25T04:16:24.931Z,5.40
2017-11-25T04:18:52.508Z,5.40
2017-11-25T04:21:20.119Z,5.30
2017-11-25T04:23:47.703Z,5.30
2017-11-25T04:26:15.298Z,5.20
2017-11-25T04:28:42.872Z,5.20
2017-11-25T04:31:10.450Z,5.00
2017-11-25T04:33:38.013Z,4.90
2017-11-25T04:36:06.363Z,4.90
2017-11-25T04:38:33.941Z,4.90
2017-11-25T04:41:01.561Z,4.90
2017-11-25T04:43:29.138Z,4.80
2017-11-25T04:45:57.487Z,4.80
2017-11-25T04:48:25.067Z,4.70
2017-11-25T04:50:52.623Z,4.70
2017-11-25T04:53:20.207Z,4.70
2017-11-25T04:55:47.767Z,4.60
2017-11-25T04:58:15.344Z,4.60
2017-11-25T05:00:42.924Z,4.60
2017-11-25T05:03:10.505Z,4.70
2017-11-25T05:05:38.863Z,4.70
2017-11-25T05:08:06.443Z,4.60
2017-11-25T05:10:34.827Z,4.60
2017-11-25T05:13:03.444Z,4.60
2017-11-25T05:15:31.004Z,4.60
2017-11-25T05:17:59.373Z,4.70
2017-11-25T05:20:27.002Z,4.60
2017-11-25T05:22:55.344Z,4.70
2017-11-25T05:25:22.920Z,4.70
2017-11-25T05:27:50.650Z,4.70
2017-11-25T05:30:18.279Z,4.70
2017-11-25T05:32:46.838Z,4.70
2017-11-25T05:35:14.417Z,4.70
2017-11-25T05:37:42.776Z,4.90
2017-11-25T05:40:10.346Z,4.80
2017-11-25T05:42:37.934Z,4.90
2017-11-25T05:45:05.817Z,4.90
2017-11-25T05:47:33.438Z,5.00
2017-11-25T05:50:00.989Z,5.00
2017-11-25T05:52:28.587Z,5.10
2017-11-25T05:54:56.912Z,5.20
2017-11-25T05:57:24.502Z,5.20
2017-11-25T05:59:52.084Z,5.20
2017-11-25T06:02:20.491Z,5.20
2017-11-25T06:04:48.478Z,5.20
2017-11-25T06:07:16.128Z,5.20
2017-11-25T06:09:43.688Z,5.20
2017-11-25T06:12:11.303Z,5.30
2017-11-25T06:14:39.839Z,5.30
2017-11-25T06:17:08.398Z,5.20
2017-11-25T06:19:35.970Z,5.30
2017-11-25T06:22:03.618Z,5.30
2017-11-25T06:24:31.239Z,5.30
2017-11-25T06:26:59.056Z,5.40
2017-11-25T06:29:26.651Z,5.30
2017-11-25T06:31:54.254Z,5.30
2017-11-25T06:34:22.631Z,5.30
2017-11-25T06:36:51.196Z,5.20
2017-11-25T06:39:18.779Z,5.20
2017-11-25T06:41:47.135Z,5.20
2017-11-25T06:44:14.771Z,5.20
2017-11-25T06:46:42.331Z,5.10
2017-11-25T06:49:09.936Z,5.10
2017-11-25T06:51:38.283Z,5.10
2017-11-25T06:54:06.250Z,5.10
2017-11-25T06:56:33.841Z,5.10
2017-11-25T06:59:02.193Z,5.10
2017-11-25T07:01:30.058Z,5.10
2017-11-25T07:03:57.628Z,5.10
2017-11-25T07:06:25.221Z,5.00
2017-11-25T07:08:53.820Z,5.10
2017-11-25T07:11:21.632Z,5.10
2017-11-25T07:13:49.210Z,5.20
2017-11-25T07:16:16.813Z,5.10
2017-11-25T07:18:44.379Z,5.20
2017-11-25T07:21:11.945Z,5.20
2017-11-25T07:23:39.748Z,5.20
2017-11-25T07:26:07.322Z,5.20
2017-11-25T07:28:35.168Z,5.20
2017-11-25T07:31:02.743Z,5.20
2017-11-25T07:33:30.325Z,5.30
2017-11-25T07:35:59.051Z,5.20
2017-11-25T07:38:26.622Z,5.20
2017-11-25T07:40:54.206Z,5.30
2017-11-25T07:43:21.794Z,5.30
2017-11-25T07:45:50.133Z,5.30
2017-11-25T07:48:17.706Z,5.30
2017-11-25T07:50:45.571Z,5.30
2017-11-25T07:53:13.169Z,5.30
2017-11-25T07:55:41.719Z,5.30
2017-11-25T07:58:09.308Z,5.30
2017-11-25T08:00:37.651Z,5.30
2017-11-25T08:03:05.254Z,5.30
2017-11-25T08:05:33.602Z,5.30
2017-11-25T08:08:01.470Z,5.30
2017-11-25T08:10:29.078Z,5.30
2017-11-25T08:12:56.667Z,5.30
2017-11-25T08:15:24.390Z,5.30
2017-11-25T08:17:52.764Z,5.30
2017-11-25T08:20:21.076Z,5.30
2017-11-25T08:22:48.667Z,5.30
2017-11-25T08:25:16.260Z,5.30
2017-11-25T08:27:44.615Z,5.30
2017-11-25T08:30:12.447Z,5.30
2017-11-25T08:32:40.019Z,5.40
2017-11-25T08:35:07.604Z,5.40
2017-11-25T08:37:35.200Z,5.40
2017-11-25T08:40:03.544Z,5.40
2017-11-25T08:42:31.133Z,5.40
2017-11-25T08:44:59.471Z,5.30
2017-11-25T08:47:27.865Z,5.30
2017-11-25T08:49:55.483Z,5.40
2017-11-25T08:52:23.105Z,5.40
2017-11-25T08:54:50.687Z,5.40
2017-11-25T08:57:18.280Z,5.40
2017-11-25T08:59:45.937Z,5.40
2017-11-25T09:02:13.528Z,5.40
2017-11-25T09:04:41.109Z,5.40
2017-11-25T09:07:08.715Z,5.40
2017-11-25T09:09:36.303Z,5.40
2017-11-25T09:12:03.882Z,5.50
2017-11-25T09:14:31.811Z,5.50
2017-11-25T09:16:59.396Z,5.60
2017-11-25T09:19:27.003Z,5.60
2017-11-25T09:21:55.365Z,5.60
2017-11-25T09:24:22.889Z,5.60
2017-11-25T09:26:50.490Z,5.70
2017-11-25T09:29:18.265Z,5.60
2017-11-25T09:31:46.984Z,5.60
2017-11-25T09:34:14.550Z,5.60
2017-11-25T09:36:42.120Z,5.60
2017-11-25T09:39:09.901Z,5.60
2017-11-25T09:41:38.080Z,5.50
2017-11-25T09:44:05.660Z,5.60
2017-11-25T09:46:33.215Z,5.60
2017-11-25T09:49:00.974Z,5.60
2017-11-25T09:51:28.902Z,5.60
2017-11-25T09:53:56.511Z,5.60
2017-11-25T09:56:24.101Z,5.60
2017-11-25T09:58:52.467Z,5.60
2017-11-25T10:01:21.019Z,5.60
2017-11-25T10:03:48.767Z,5.60
2017-11-25T10:06:16.365Z,5.60
2017-11-25T10:08:44.119Z,5.60
2017-11-25T10:11:11.687Z,5.60
2017-11-25T10:13:39.326Z,5.50
2017-11-25T10:16:06.950Z,5.50
2017-11-25T10:18:34.549Z,5.40
2017-11-25T10:21:02.165Z,5.30
2017-11-25T10:23:30.608Z,5.20
2017-11-25T10:25:58.207Z,5.20
2017-11-25T10:28:25.986Z,5.20
2017-11-25T10:30:53.576Z,5.20
2017-11-25T10:33:21.344Z,5.20
2017-11-25T10:35:49.402Z,5.20
2017-11-25T10:38:17.055Z,5.30
2017-11-25T10:40:44.671Z,5.40
2017-11-25T10:43:12.511Z,5.40
2017-11-25T10:45:40.129Z,5.50
2017-11-25T10:48:07.799Z,5.50
2017-11-25T10:50:35.419Z,5.60
2017-11-25T10:53:03.006Z,5.60
2017-11-25T10:55:31.344Z,5.70
2017-11-25T10:57:59.135Z,5.70
2017-11-25T11:00:26.750Z,5.70
2017-11-25T11:02:54.555Z,5.70
2017-11-25T11:05:22.158Z,5.70
2017-11-25T11:07:49.720Z,5.70
2017-11-25T11:10:17.350Z,5.70
2017-11-25T11:12:45.754Z,5.60
2017-11-25T11:15:13.338Z,5.60
2017-11-25T11:17:40.935Z,5.60
2017-11-25T11:20:08.510Z,5.60
2017-11-25T11:22:36.891Z,5.60
2017-11-25T11:25:04.491Z,5.60
2017-11-25T11:27:32.082Z,5.70
2017-11-25T11:29:59.695Z,5.70
2017-11-25T11:32:28.041Z,5.80
2017-11-25T11:34:55.682Z,5.80
2017-11-25T11:37:23.326Z,5.90
2017-11-25T11:39:50.898Z,6.00
2017-11-25T11:42:18.501Z,6.10
2017-11-25T11:44:46.095Z,6.10
2017-11-25T11:47:13.670Z,6.10
2017-11-25T11:49:41.463Z,6.00
2017-11-25T11:52:09.041Z,6.00
2017-11-25T11:54:36.671Z,6.00
2017-11-25T11:57:04.268Z,6.00
2017-11-25T11:59:31.848Z,6.10
2017-11-25T12:02:00.202Z,6.10
2017-11-25T12:04:27.833Z,6.10
2017-11-25T12:06:55.425Z,6.00
2017-11-25T12:09:23.017Z,6.10
2017-11-25T12:11:51.379Z,6.10
2017-11-25T12:14:19.784Z,6.10
2017-11-25T12:16:47.596Z,6.00
2017-11-25T12:19:15.170Z,6.10
2017-11-25T12:21:42.855Z,6.10
2017-11-25T12:24:11.193Z,6.20
2017-11-25T12:26:39.339Z,6.20
2017-11-25T12:29:06.945Z,6.20
2017-11-25T12:31:34.514Z,6.30
2017-11-25T12:34:02.110Z,6.40
2017-11-25T12:36:29.683Z,6.50
2017-11-25T12:38:57.285Z,6.40
2017-11-25T12:41:24.907Z,6.40
2017-11-25T12:43:52.488Z,6.50
2017-11-25T12:46:20.072Z,6.40
2017-11-25T12:48:47.671Z,6.40
2017-11-25T12:51:16.044Z,6.20
2017-11-25T12:53:44.467Z,6.20
2017-11-25T12:56:14.376Z,6.20
2017-11-25T12:58:41.964Z,6.20
2017-11-25T13:01:09.734Z,6.20
2017-11-25T13:03:37.335Z,6.30
2017-11-25T13:06:06.872Z,6.30
2017-11-25T13:08:34.451Z,6.30
2017-11-25T13:11:02.079Z,6.30
2017-11-25T13:13:29.660Z,6.40
2017-11-25T13:15:57.342Z,6.30
2017-11-25T13:18:24.911Z,6.40
2017-11-25T13:20:53.088Z,6.40
2017-11-25T13:23:20.646Z,6.30
2017-11-25T13:25:48.233Z,6.30
2017-11-25T13:28:16.645Z,6.20
2017-11-25T13:30:45.187Z,6.20
2017-11-25T13:33:12.790Z,6.20
2017-11-25T13:35:40.370Z,6.20
2017-11-25T13:38:07.991Z,6.20
2017-11-25T13:40:35.649Z,6.20
2017-11-25T13:43:04.008Z,6.20
2017-11-25T13:45:31.606Z,6.10
2017-11-25T13:47:59.193Z,6.10
2017-11-25T13:50:26.800Z,6.00
2017-11-25T13:52:55.209Z,6.00
2017-11-25T13:55:22.829Z,6.00
2017-11-25T13:57:50.395Z,6.00
2017-11-25T14:00:17.963Z,5.90
2017-11-25T14:02:46.324Z,5.90
2017-11-25T14:05:13.910Z,5.80
2017-11-25T14:07:42.227Z,5.90
2017-11-25T14:10:09.767Z,5.80
2017-11-25T14:12:37.401Z,5.90
2017-11-25T14:15:05.743Z,5.90
2017-11-25T14:17:33.349Z,5.80
2017-11-25T14:20:01.677Z,5.80
2017-11-25T14:22:29.324Z,5.80
2017-11-25T14:24:56.916Z,5.80
2017-11-25T14:27:24.484Z,5.80
2017-11-25T14:29:52.149Z,5.80
2017-11-25T14:32:19.755Z,5.70
2017-11-25T14:34:47.358Z,5.70
2017-11-25T14:37:14.944Z,5.60
2017-11-25T14:39:42.544Z,5.60
2017-11-25T14:42:10.147Z,5.60
2017-11-25T14:44:37.760Z,5.60
2017-11-25T14:47:05.352Z,5.50
2017-11-25T14:49:32.931Z,5.50
2017-11-25T14:52:00.511Z,5.50
2017-11-25T14:54:28.093Z,5.50
2017-11-25T14:56:56.437Z,5.40
2017-11-25T14:59:24.048Z,5.40
2017-11-25T15:01:51.588Z,5.30
2017-11-25T15:04:19.932Z,5.20
2017-11-25T15:06:47.504Z,4.90
2017-11-25T15:09:15.139Z,5.20
2017-11-25T15:11:42.787Z,5.30
2017-11-25T15:14:10.401Z,5.30
2017-11-25T15:16:38.075Z,5.30
2017-11-25T15:19:06.451Z,5.30
2017-11-25T15:21:34.042Z,5.30
2017-11-25T15:24:01.623Z,5.30
2017-11-25T15:26:29.280Z,5.30
2017-11-25T15:28:56.914Z,5.30
2017-11-25T15:31:25.278Z,5.20
2017-11-25T15:33:53.635Z,5.10
2017-11-25T15:36:21.225Z,5.10
2017-11-25T15:38:49.576Z,5.00
2017-11-25T15:41:17.166Z,4.90
2017-11-25T15:43:45.529Z,4.80
2017-11-25T15:46:13.117Z,4.80
2017-11-25T15:48:41.446Z,4.70
2017-11-25T15:51:09.059Z,4.60
2017-11-25T15:53:36.644Z,4.60
2017-11-25T15:56:04.248Z,4.60
2017-11-25T15:58:31.822Z,4.50
2017-11-25T16:00:59.427Z,4.50
2017-11-25T16:03:27.063Z,4.40
2017-11-25T16:05:55.438Z,4.40
2017-11-25T16:08:23.844Z,4.50
2017-11-25T16:10:51.448Z,4.40
2017-11-25T16:13:19.024Z,4.50
2017-11-25T16:15:46.654Z,4.50
2017-11-25T16:18:14.295Z,4.50
2017-11-25T16:20:43.738Z,4.50
2017-11-25T16:23:11.367Z,4.50
2017-11-25T16:25:39.059Z,4.60
2017-11-25T16:28:06.646Z,4.60
2017-11-25T16:30:34.247Z,4.60
2017-11-25T16:33:01.827Z,4.60
2017-11-25T16:35:29.473Z,4.50
2017-11-25T16:37:57.076Z,4.50
2017-11-25T16:40:24.694Z,4.50
2017-11-25T16:42:52.256Z,4.40
2017-11-25T16:45:19.838Z,4.40
2017-11-25T16:47:47.454Z,4.40
2017-11-25T16:50:15.780Z,4.30
2017-11-25T16:52:43.368Z,4.30
2017-11-25T16:55:10.947Z,4.30
2017-11-25T16:57:39.381Z,4.30
2017-11-25T17:00:06.939Z,4.30
2017-11-25T17:02:34.553Z,4.30
2017-11-25T17:05:02.900Z,4.20
2017-11-25T17:07:30.509Z,4.20
2017-11-25T17:09:58.240Z,4.20
2017-11-25T17:12:25.820Z,4.20
2017-11-25T17:14:54.167Z,4.30
2017-11-25T17:17:21.746Z,4.30
2017-11-25T17:19:49.640Z,4.30
2017-11-25T17:22:17.687Z,4.20
2017-11-25T17:24:46.051Z,4.20
2017-11-25T17:27:13.623Z,4.20
2017-11-25T17:29:41.295Z,4.10
2017-11-25T17:32:09.714Z,4.00
2017-11-25T17:34:37.299Z,4.00
2017-11-25T17:37:04.936Z,4.00
2017-11-25T17:39:32.547Z,3.90
2017-11-25T17:42:00.139Z,3.90
2017-11-25T17:44:27.736Z,3.90
2017-11-25T17:46:55.343Z,3.90
2017-11-25T17:49:23.707Z,4.00
2017-11-25T17:51:51.265Z,4.10
2017-11-25T17:54:18.889Z,4.10
2017-11-25T17:56:46.514Z,4.30
2017-11-25T17:59:14.887Z,4.40
2017-11-25T18:01:43.244Z,4.40
2017-11-25T18:04:10.845Z,4.40
2017-11-25T18:06:38.432Z,4.40
2017-11-25T18:09:06.288Z,4.40
2017-11-25T18:11:34.031Z,4.50
2017-11-25T18:14:02.422Z,4.50
2017-11-25T18:16:30.035Z,4.40
2017-11-25T18:18:57.654Z,4.40
2017-11-25T18:21:25.248Z,4.40
2017-11-25T18:23:52.865Z,4.40
2017-11-25T18:26:20.561Z,4.40
2017-11-25T18:28:48.147Z,4.40
2017-11-25T18:31:15.790Z,4.40
2017-11-25T18:33:43.474Z,4.40
2017-11-25T18:36:11.108Z,4.40
2017-11-25T18:38:39.492Z,4.50
2017-11-25T18:41:07.163Z,4.40
2017-11-25T18:43:34.765Z,4.40
2017-11-25T18:59:02.450Z,4.40
2017-11-25T19:01:31.185Z,4.10
2017-11-25T19:03:58.844Z,4.10
2017-11-25T19:06:26.421Z,4.10
2017-11-25T19:08:54.008Z,4.00
2017-11-25T19:11:21.680Z,4.00
2017-11-25T19:13:49.287Z,4.00
2017-11-25T19:16:16.911Z,3.80
2017-11-25T19:18:44.520Z,3.70
2017-11-25T19:21:12.096Z,3.60
2017-11-25T19:23:39.666Z,3.50
2017-11-25T19:26:08.908Z,3.40
2017-11-25T19:28:37.259Z,3.30
2017-11-25T19:31:04.855Z,3.30
2017-11-25T19:33:32.454Z,3.20
2017-11-25T19:36:00.112Z,3.20
2017-11-25T19:38:28.564Z,3.10
2017-11-25T19:40:56.181Z,3.00
2017-11-25T19:43:24.962Z,3.00
2017-11-25T19:45:53.374Z,2.90
2017-11-25T19:48:20.967Z,2.90
2017-11-25T19:50:48.567Z,2.90
2017-11-25T19:53:16.918Z,2.80
2017-11-25T19:55:44.544Z,2.80
2017-11-25T19:58:12.157Z,2.80
2017-11-25T20:00:40.547Z,2.70
2017-11-25T20:03:08.887Z,2.60
2017-11-25T20:05:36.472Z,2.60
2017-11-25T20:08:04.086Z,2.60
2017-11-25T20:10:31.954Z,2.60
2017-11-25T20:12:59.559Z,2.60
2017-11-25T20:15:27.406Z,2.60
2017-11-25T20:17:55.036Z,2.60
2017-11-25T20:20:22.636Z,2.60
2017-11-25T20:22:50.248Z,2.50
2017-11-25T20:25:17.909Z,2.50
2017-11-25T20:27:45.735Z,2.50
2017-11-25T20:30:13.389Z,2.60
2017-11-25T20:32:41.025Z,2.60
2017-11-25T20:35:09.450Z,2.60
2017-11-25T20:37:37.493Z,2.60
2017-11-25T20:40:05.090Z,2.60
2017-11-25T20:42:32.717Z,2.50
2017-11-25T20:45:00.324Z,2.60
2017-11-25T20:47:28.714Z,2.50
2017-11-25T20:49:56.374Z,2.50
2017-11-25T20:52:23.969Z,2.50
2017-11-25T20:54:51.559Z,2.50
2017-11-25T20:57:19.185Z,2.50
2017-11-25T20:59:46.779Z,2.50
2017-11-25T21:02:14.365Z,2.60
2017-11-25T21:04:42.773Z,2.60
2017-11-25T21:07:10.418Z,2.60
2017-11-25T21:09:38.829Z,2.60
2017-11-25T21:12:06.555Z,2.60
2017-11-25T21:14:34.987Z,2.60
2017-11-25T21:17:02.613Z,2.60
2017-11-25T21:19:30.193Z,2.60
2017-11-25T21:21:57.909Z,2.60
2017-11-25T21:24:25.508Z,2.60
2017-11-25T21:26:53.224Z,2.60
2017-11-25T21:29:20.930Z,2.70
2017-11-25T21:31:48.649Z,2.70
2017-11-25T21:34:16.334Z,2.80
2017-11-25T21:36:44.762Z,2.80
2017-11-25T21:39:12.393Z,2.80
2017-11-25T21:41:40.810Z,2.90
2017-11-25T21:44:09.157Z,2.90
2017-11-25T21:46:37.526Z,2.90
2017-11-25T21:49:05.856Z,2.90
2017-11-25T21:51:33.509Z,2.80
2017-11-25T21:54:01.108Z,2.80
2017-11-25T21:56:28.728Z,2.70
2017-11-25T21:58:56.333Z,2.70
2017-11-25T22:01:23.919Z,2.70
2017-11-25T22:03:52.268Z,2.60
2017-11-25T22:06:19.898Z,2.60
2017-11-25T22:08:47.494Z,2.60
2017-11-25T22:11:15.092Z,2.60
2017-11-25T22:13:42.776Z,2.60
2017-11-25T22:16:10.386Z,2.60
2017-11-25T22:18:38.923Z,2.70
2017-11-25T22:21:06.596Z,2.60
2017-11-25T22:23:34.176Z,2.60
2017-11-25T22:26:01.793Z,2.70
2017-11-25T22:28:29.488Z,2.60
2017-11-25T22:30:57.081Z,2.60
2017-11-25T22:33:24.643Z,2.70
2017-11-25T22:35:52.979Z,2.70
2017-11-25T22:38:20.579Z,2.70
2017-11-25T22:40:48.170Z,2.70
2017-11-25T22:43:16.534Z,2.70
2017-11-25T22:45:44.880Z,2.60
2017-11-25T22:48:12.503Z,2.60
2017-11-25T22:50:40.114Z,2.60
2017-11-25T22:53:07.689Z,2.50
2017-11-25T22:55:36.029Z,2.40
2017-11-25T22:58:03.692Z,2.40
2017-11-25T23:00:31.495Z,2.40
2017-11-25T23:02:59.849Z,2.50
2017-11-25T23:05:27.433Z,2.50
2017-11-25T23:07:55.816Z,2.50
2017-11-25T23:10:24.193Z,2.60
2017-11-25T23:12:51.782Z,2.50
2017-11-25T23:15:19.398Z,2.70
2017-11-25T23:17:46.963Z,2.80
2017-11-25T23:20:14.578Z,2.80
2017-11-25T23:22:42.163Z,2.90
2017-11-25T23:25:09.749Z,2.90
2017-11-25T23:27:37.337Z,3.00
2017-11-25T23:30:05.696Z,3.10
2017-11-25T23:32:33.309Z,3.00
2017-11-25T23:35:00.887Z,3.10
2017-11-25T23:37:28.468Z,3.10
2017-11-25T23:39:56.555Z,3.10
2017-11-25T23:42:24.139Z,3.20
2017-11-25T23:44:51.748Z,3.20
2017-11-25T23:47:19.419Z,3.20
2017-11-25T23:49:47.060Z,3.10
2017-11-25T23:52:14.628Z,3.10
2017-11-25T23:54:42.218Z,3.00
2017-11-25T23:57:09.966Z,3.00
2017-11-25T23:59:37.580Z,2.90
